Time;durP1;ratioP1;P1;durP2;ratioP2;P2;SDS_P1;SDS_P2;PMS_P1;PMS_P2;Temp;Humidity;BMP_temperature;BMP_pressure;BME280_temperature;BME280_humidity;BME280_pressure;Samples;Min_cycle;Max_cycle;Signal;HPM_P1;HPM_P2
2022/08/28 00:01:09;;;;;;;;;;;19.40;99.90;;;;;;4590544;19;20259;-25
2022/08/28 00:02:40;;;;;;;;;;;19.40;99.90;;;;;;4590976;19;19974;-28
2022/08/28 00:04:11;;;;;;;;;;;19.40;99.90;;;;;;4590958;19;19921;-25
2022/08/28 00:05:42;;;;;;;;;;;19.40;99.90;;;;;;4590727;19;19931;-25
2022/08/28 00:07:13;;;;;;;;;;;19.40;99.90;;;;;;4590597;19;19919;-28
2022/08/28 00:08:44;;;;;;;;;;;19.30;99.90;;;;;;4590914;19;19919;-25
2022/08/28 00:10:23;;;;;;;;;;;19.30;99.90;;;;;;4590341;19;19915;-25
2022/08/28 00:11:57;;;;;;;;;;;19.30;99.90;;;;;;4589439;19;19911;-25
2022/08/28 00:13:28;;;;;;;;;;;19.30;99.90;;;;;;4590569;19;20005;-28
2022/08/28 00:14:59;;;;;;;;;;;19.30;99.90;;;;;;4590470;19;19938;-25
2022/08/28 00:16:30;;;;;;;;;;;19.30;99.90;;;;;;4590422;19;20332;-25
2022/08/28 00:18:02;;;;;;;;;;;19.30;99.90;;;;;;4590214;19;19982;-25
2022/08/28 00:19:33;;;;;;;;;;;19.30;99.90;;;;;;4590986;19;20309;-30
2022/08/28 00:21:04;;;;;;;;;;;19.30;99.90;;;;;;4590200;19;19914;-25
2022/08/28 00:22:37;;;;;;;;;;;19.30;99.90;;;;;;4589085;19;19949;-25
2022/08/28 00:24:08;;;;;;;;;;;19.30;99.90;;;;;;4589002;19;20268;-25
2022/08/28 00:25:39;;;;;;;;;;;19.30;99.90;;;;;;4589694;19;19925;-25
2022/08/28 00:29:20;;;;;;;;;;;19.30;99.90;;;;;;4587770;19;19926;-26
2022/08/28 00:30:53;;;;;;;;;;;19.20;99.90;;;;;;4588028;19;19930;-25
2022/08/28 00:32:24;;;;;;;;;;;19.20;99.90;;;;;;4588138;19;20332;-25
2022/08/28 00:33:55;;;;;;;;;;;19.20;99.90;;;;;;4588396;19;19974;-26
2022/08/28 00:35:27;;;;;;;;;;;19.20;99.90;;;;;;4587559;19;19910;-25
2022/08/28 00:36:57;;;;;;;;;;;19.20;99.90;;;;;;4587908;19;20238;-27
2022/08/28 00:38:29;;;;;;;;;;;19.20;99.90;;;;;;4586683;19;19919;-25
2022/08/28 00:40:00;;;;;;;;;;;19.10;99.90;;;;;;4588012;19;20238;-25
2022/08/28 00:41:31;;;;;;;;;;;19.10;99.90;;;;;;4587125;19;20290;-25
2022/08/28 00:43:02;;;;;;;;;;;19.20;99.90;;;;;;4588013;19;19918;-25
2022/08/28 00:44:35;;;;;;;;;;;19.10;99.90;;;;;;4588374;19;20266;-26
2022/08/28 00:46:07;;;;;;;;;;;19.10;99.90;;;;;;4587737;19;19923;-26
2022/08/28 00:47:39;;;;;;;;;;;19.10;99.90;;;;;;4587369;19;19919;-25
2022/08/28 00:49:10;;;;;;;;;;;19.10;99.90;;;;;;4587808;19;19923;-26
2022/08/28 00:52:31;;;;;;;;;;;19.10;99.90;;;;;;4590659;19;20403;-26
2022/08/28 00:54:03;;;;;;;;;;;19.10;99.90;;;;;;4591929;19;19944;-24
2022/08/28 00:55:33;;;;;;;;;;;19.10;99.90;;;;;;4592367;19;19918;-24
2022/08/28 00:57:05;;;;;;;;;;;19.00;99.90;;;;;;4592539;19;19921;-26
2022/08/28 00:58:36;;;;;;;;;;;19.10;99.90;;;;;;4590263;19;19918;-25
2022/08/28 01:00:09;;;;;;;;;;;19.10;99.90;;;;;;4592734;19;19914;-25
2022/08/28 01:01:40;;;;;;;;;;;19.10;99.90;;;;;;4594573;19;19948;-25
2022/08/28 01:03:11;;;;;;;;;;;19.10;99.90;;;;;;4594918;19;19927;-28
2022/08/28 01:04:42;;;;;;;;;;;19.10;99.90;;;;;;4594217;19;19938;-25
2022/08/28 01:06:13;;;;;;;;;;;19.10;99.90;;;;;;4594365;19;19922;-29
2022/08/28 01:07:45;;;;;;;;;;;19.10;99.90;;;;;;4594430;19;19926;-26
2022/08/28 01:09:16;;;;;;;;;;;19.10;99.90;;;;;;4594807;19;19919;-26
2022/08/28 01:10:48;;;;;;;;;;;19.10;99.90;;;;;;4594273;19;20333;-26
2022/08/28 01:12:24;;;;;;;;;;;19.10;99.90;;;;;;4592962;19;19940;-25
2022/08/28 01:13:55;;;;;;;;;;;19.10;99.90;;;;;;4593203;19;19926;-25
2022/08/28 01:15:30;;;;;;;;;;;19.10;99.90;;;;;;4594297;19;19911;-25
2022/08/28 01:17:01;;;;;;;;;;;19.10;99.90;;;;;;4594028;19;19918;-25
2022/08/28 01:18:33;;;;;;;;;;;19.00;99.90;;;;;;4591641;19;19936;-25
2022/08/28 01:20:05;;;;;;;;;;;19.10;99.90;;;;;;4594162;19;19919;-25
2022/08/28 01:21:38;;;;;;;;;;;19.00;99.90;;;;;;4592774;19;20306;-25
2022/08/28 01:23:12;;;;;;;;;;;19.00;99.90;;;;;;4592942;19;19925;-25
2022/08/28 01:24:44;;;;;;;;;;;19.00;99.90;;;;;;4593754;19;19918;-25
2022/08/28 01:26:15;;;;;;;;;;;19.00;99.90;;;;;;4593033;19;20403;-30
2022/08/28 01:27:46;;;;;;;;;;;19.00;99.90;;;;;;4593372;19;19922;-25
2022/08/28 01:29:17;;;;;;;;;;;19.00;99.90;;;;;;4593654;19;20245;-25
2022/08/28 01:30:48;;;;;;;;;;;19.00;99.90;;;;;;4593984;19;20277;-25
2022/08/28 01:32:30;;;;;;;;;;;19.00;99.90;;;;;;4594023;19;19922;-25
2022/08/28 01:34:02;;;;;;;;;;;19.00;99.90;;;;;;4593689;19;19918;-25
2022/08/28 01:35:34;;;;;;;;;;;18.90;99.90;;;;;;4592630;19;19931;-24
2022/08/28 01:37:05;;;;;;;;;;;18.90;99.90;;;;;;4593445;19;19934;-25
2022/08/28 01:38:36;;;;;;;;;;;18.90;99.90;;;;;;4592474;19;19915;-26
2022/08/28 01:40:08;;;;;;;;;;;18.90;99.90;;;;;;4593369;19;19911;-27
2022/08/28 01:41:44;;;;;;;;;;;18.90;99.90;;;;;;4592761;19;19922;-29
2022/08/28 01:43:16;;;;;;;;;;;18.90;99.90;;;;;;4593593;19;20324;-25
2022/08/28 01:44:48;;;;;;;;;;;18.90;99.90;;;;;;4592912;19;19942;-25
2022/08/28 01:46:18;;;;;;;;;;;18.90;99.90;;;;;;4593160;19;19930;-29
2022/08/28 01:47:49;;;;;;;;;;;18.90;99.90;;;;;;4593681;19;19974;-25
2022/08/28 01:49:21;;;;;;;;;;;18.90;99.90;;;;;;4593673;19;20241;-28
2022/08/28 01:50:52;;;;;;;;;;;18.90;99.90;;;;;;4593878;19;19915;-25
2022/08/28 01:52:22;;;;;;;;;;;18.90;99.90;;;;;;4593457;19;19914;-25
2022/08/28 01:53:53;;;;;;;;;;;18.80;99.90;;;;;;4593516;19;19929;-25
2022/08/28 01:55:24;;;;;;;;;;;18.80;99.90;;;;;;4592487;19;19990;-25
2022/08/28 01:56:57;;;;;;;;;;;18.80;99.90;;;;;;4592813;19;19970;-25
2022/08/28 01:58:30;;;;;;;;;;;18.80;99.90;;;;;;4591846;19;20332;-29
2022/08/28 02:00:01;;;;;;;;;;;18.80;99.90;;;;;;4592310;19;19911;-28
2022/08/28 02:01:32;;;;;;;;;;;18.80;99.90;;;;;;4592919;19;19918;-25
2022/08/28 02:03:03;;;;;;;;;;;18.80;99.90;;;;;;4592893;19;20256;-27
2022/08/28 02:04:35;;;;;;;;;;;18.80;99.90;;;;;;4592981;19;20369;-28
2022/08/28 02:06:06;;;;;;;;;;;18.80;99.90;;;;;;4593057;19;19915;-25
2022/08/28 02:07:37;;;;;;;;;;;18.70;99.90;;;;;;4592485;19;19930;-25
2022/08/28 02:09:08;;;;;;;;;;;18.70;99.90;;;;;;4591850;19;19918;-28
2022/08/28 02:10:39;;;;;;;;;;;18.70;99.90;;;;;;4592076;19;19923;-25
2022/08/28 02:12:10;;;;;;;;;;;18.70;99.90;;;;;;4592179;19;19914;-25
2022/08/28 02:13:42;;;;;;;;;;;18.70;99.90;;;;;;4592026;19;19922;-25
2022/08/28 02:15:13;;;;;;;;;;;18.80;99.90;;;;;;4592635;19;19926;-25
2022/08/28 02:16:44;;;;;;;;;;;18.80;99.90;;;;;;4592708;19;19915;-25
2022/08/28 02:18:16;;;;;;;;;;;18.80;99.90;;;;;;4592308;19;19951;-25
2022/08/28 02:19:47;;;;;;;;;;;18.80;99.90;;;;;;4592717;19;19922;-25
2022/08/28 02:21:18;;;;;;;;;;;18.70;99.90;;;;;;4593057;19;20366;-27
2022/08/28 02:22:49;;;;;;;;;;;18.70;99.90;;;;;;4591536;19;20281;-27
2022/08/28 02:24:21;;;;;;;;;;;18.70;99.90;;;;;;4591621;19;19938;-25
2022/08/28 02:25:52;;;;;;;;;;;18.70;99.90;;;;;;4592305;19;19949;-25
2022/08/28 02:27:23;;;;;;;;;;;18.80;99.90;;;;;;4592665;19;19926;-24
2022/08/28 02:28:54;;;;;;;;;;;18.80;99.90;;;;;;4592540;19;19945;-24
2022/08/28 02:30:25;;;;;;;;;;;18.70;99.90;;;;;;4591651;19;19923;-25
2022/08/28 02:31:57;;;;;;;;;;;18.70;99.90;;;;;;4591476;19;20424;-26
2022/08/28 02:33:28;;;;;;;;;;;18.70;99.90;;;;;;4592173;19;19918;-26
2022/08/28 02:34:59;;;;;;;;;;;18.70;99.90;;;;;;4591954;19;20264;-25
2022/08/28 02:36:30;;;;;;;;;;;18.70;99.90;;;;;;4591311;19;19914;-29
2022/08/28 02:38:02;;;;;;;;;;;18.70;99.90;;;;;;4591421;19;19919;-25
2022/08/28 02:39:33;;;;;;;;;;;18.70;99.90;;;;;;4589843;19;20094;-27
2022/08/28 02:41:04;;;;;;;;;;;18.70;99.90;;;;;;4592063;19;19915;-24
2022/08/28 02:42:35;;;;;;;;;;;18.70;99.90;;;;;;4591280;19;19935;-26
2022/08/28 02:44:07;;;;;;;;;;;18.70;99.90;;;;;;4591026;19;20301;-29
2022/08/28 02:45:37;;;;;;;;;;;18.70;99.90;;;;;;4592094;19;19921;-25
2022/08/28 02:47:08;;;;;;;;;;;18.70;99.90;;;;;;4591516;19;19918;-27
2022/08/28 02:48:39;;;;;;;;;;;18.70;99.90;;;;;;4591702;19;20266;-29
2022/08/28 02:50:11;;;;;;;;;;;18.70;99.90;;;;;;4592258;19;19914;-26
2022/08/28 02:51:42;;;;;;;;;;;18.70;99.90;;;;;;4591621;19;19925;-25
2022/08/28 02:53:13;;;;;;;;;;;18.60;99.90;;;;;;4591939;19;19936;-25
2022/08/28 02:54:45;;;;;;;;;;;18.70;99.90;;;;;;4592203;19;19922;-25
2022/08/28 02:56:16;;;;;;;;;;;18.70;99.90;;;;;;4592099;19;19964;-25
2022/08/28 02:57:47;;;;;;;;;;;18.60;99.90;;;;;;4592132;19;19915;-24
2022/08/28 02:59:18;;;;;;;;;;;18.60;99.90;;;;;;4591951;19;19925;-25
2022/08/28 03:00:50;;;;;;;;;;;18.60;99.90;;;;;;4590892;19;19942;-25
2022/08/28 03:02:21;;;;;;;;;;;18.60;99.90;;;;;;4591383;19;19935;-25
2022/08/28 03:03:52;;;;;;;;;;;18.70;99.90;;;;;;4592090;19;20256;-25
2022/08/28 03:05:23;;;;;;;;;;;18.60;99.90;;;;;;4589502;19;19919;-25
2022/08/28 03:06:54;;;;;;;;;;;18.60;99.90;;;;;;4591061;19;19914;-26
2022/08/28 03:08:25;;;;;;;;;;;18.60;99.90;;;;;;4591565;19;19933;-26
2022/08/28 03:09:56;;;;;;;;;;;18.60;99.90;;;;;;4592144;19;19918;-25
2022/08/28 03:11:27;;;;;;;;;;;18.60;99.90;;;;;;4590766;19;19985;-25
2022/08/28 03:12:58;;;;;;;;;;;18.50;99.90;;;;;;4591501;19;19911;-25
2022/08/28 03:14:29;;;;;;;;;;;18.50;99.90;;;;;;4591021;19;19934;-25
2022/08/28 03:16:00;;;;;;;;;;;18.50;99.90;;;;;;4590209;19;19974;-25
2022/08/28 03:17:31;;;;;;;;;;;18.50;99.90;;;;;;4590454;19;19915;-30
2022/08/28 03:19:02;;;;;;;;;;;18.50;99.90;;;;;;4590557;19;20329;-25
2022/08/28 03:20:34;;;;;;;;;;;18.50;99.90;;;;;;4591718;19;20252;-27
2022/08/28 03:22:04;;;;;;;;;;;18.50;99.90;;;;;;4590495;19;19919;-28
2022/08/28 03:23:37;;;;;;;;;;;18.50;99.90;;;;;;4591170;19;19918;-25
2022/08/28 03:25:08;;;;;;;;;;;18.50;99.90;;;;;;4591338;19;19922;-29
2022/08/28 03:26:39;;;;;;;;;;;18.50;99.90;;;;;;4591896;19;19926;-25
2022/08/28 03:28:10;;;;;;;;;;;18.50;99.90;;;;;;4591324;19;19918;-25
2022/08/28 03:29:41;;;;;;;;;;;18.50;99.90;;;;;;4591212;19;19922;-25
2022/08/28 03:31:13;;;;;;;;;;;18.50;99.90;;;;;;4591534;19;20375;-27
2022/08/28 03:32:45;;;;;;;;;;;18.50;99.90;;;;;;4590046;19;19978;-25
2022/08/28 03:34:16;;;;;;;;;;;18.50;99.90;;;;;;4590156;19;20344;-25
2022/08/28 03:35:47;;;;;;;;;;;18.50;99.90;;;;;;4590977;19;19918;-25
2022/08/28 03:37:18;;;;;;;;;;;18.50;99.90;;;;;;4590682;19;20237;-26
2022/08/28 03:38:50;;;;;;;;;;;18.50;99.90;;;;;;4587563;19;19995;-25
2022/08/28 03:40:21;;;;;;;;;;;18.50;99.90;;;;;;4590644;19;19918;-25
2022/08/28 03:41:52;;;;;;;;;;;18.50;99.90;;;;;;4590156;19;19923;-25
2022/08/28 03:43:23;;;;;;;;;;;18.50;99.90;;;;;;4591300;19;19921;-25
2022/08/28 03:44:54;;;;;;;;;;;18.50;99.90;;;;;;4590969;19;20349;-27
2022/08/28 03:46:25;;;;;;;;;;;18.50;99.90;;;;;;4591239;19;19936;-27
2022/08/28 03:47:57;;;;;;;;;;;18.40;99.90;;;;;;4591075;19;19911;-25
2022/08/28 03:49:28;;;;;;;;;;;18.40;99.90;;;;;;4590888;19;20278;-25
2022/08/28 03:50:59;;;;;;;;;;;18.50;99.90;;;;;;4591023;19;19926;-25
2022/08/28 03:52:30;;;;;;;;;;;18.50;99.90;;;;;;4591115;19;19929;-28
2022/08/28 03:54:01;;;;;;;;;;;18.50;99.90;;;;;;4591198;19;19925;-25
2022/08/28 03:55:32;;;;;;;;;;;18.50;99.90;;;;;;4590744;19;20327;-26
2022/08/28 03:57:03;;;;;;;;;;;18.50;99.90;;;;;;4590704;19;20283;-25
2022/08/28 03:58:34;;;;;;;;;;;18.50;99.90;;;;;;4590044;19;19938;-25
2022/08/28 04:00:06;;;;;;;;;;;18.50;99.90;;;;;;4591300;19;19927;-29
2022/08/28 04:01:37;;;;;;;;;;;18.40;99.90;;;;;;4590716;19;19923;-25
2022/08/28 04:03:11;;;;;;;;;;;18.50;99.90;;;;;;4590482;19;19938;-26
2022/08/28 04:04:42;;;;;;;;;;;18.40;99.90;;;;;;4589860;19;20324;-25
2022/08/28 04:06:13;;;;;;;;;;;18.50;99.90;;;;;;4590817;19;19987;-28
2022/08/28 04:07:44;;;;;;;;;;;18.40;99.90;;;;;;4589353;19;19932;-26
2022/08/28 04:09:15;;;;;;;;;;;18.40;99.90;;;;;;4590258;19;19928;-25
2022/08/28 04:10:46;;;;;;;;;;;18.40;99.90;;;;;;4590983;19;20337;-24
2022/08/28 04:12:17;;;;;;;;;;;18.40;99.90;;;;;;4589204;19;19987;-25
2022/08/28 04:13:48;;;;;;;;;;;18.40;99.90;;;;;;4590338;19;20252;-25
2022/08/28 04:15:20;;;;;;;;;;;18.40;99.90;;;;;;4589174;19;19922;-25
2022/08/28 04:16:51;;;;;;;;;;;18.40;99.90;;;;;;4589452;19;20352;-25
2022/08/28 04:18:21;;;;;;;;;;;18.40;99.90;;;;;;4588585;19;20142;-25
2022/08/28 04:19:52;;;;;;;;;;;18.40;99.90;;;;;;4590061;19;19911;-30
2022/08/28 04:21:25;;;;;;;;;;;18.40;99.90;;;;;;4590623;19;20317;-25
2022/08/28 04:22:57;;;;;;;;;;;18.40;99.90;;;;;;4590411;19;20252;-25
2022/08/28 04:24:28;;;;;;;;;;;18.40;99.90;;;;;;4590087;19;19919;-25
2022/08/28 04:25:59;;;;;;;;;;;18.40;99.90;;;;;;4588244;19;19918;-25
2022/08/28 04:27:30;;;;;;;;;;;18.40;99.90;;;;;;4588636;19;19932;-24
2022/08/28 04:29:02;;;;;;;;;;;18.40;99.90;;;;;;4589165;19;19919;-26
2022/08/28 04:30:33;;;;;;;;;;;18.50;99.90;;;;;;4589948;19;19922;-28
2022/08/28 04:32:04;;;;;;;;;;;18.40;99.90;;;;;;4590052;19;19919;-28
2022/08/28 04:33:35;;;;;;;;;;;18.40;99.90;;;;;;4588407;19;19918;-24
2022/08/28 04:35:07;;;;;;;;;;;18.40;99.90;;;;;;4589603;19;19955;-27
2022/08/28 04:36:38;;;;;;;;;;;18.50;99.90;;;;;;4590174;19;19914;-26
2022/08/28 04:38:09;;;;;;;;;;;18.50;99.90;;;;;;4589728;19;19922;-25
2022/08/28 04:39:40;;;;;;;;;;;18.50;99.90;;;;;;4589610;19;20325;-29
2022/08/28 04:41:12;;;;;;;;;;;18.50;99.90;;;;;;4589725;19;20221;-26
2022/08/28 04:42:43;;;;;;;;;;;18.50;99.90;;;;;;4589188;19;20353;-25
2022/08/28 04:44:15;;;;;;;;;;;18.50;99.90;;;;;;4590006;19;19922;-29
2022/08/28 04:45:46;;;;;;;;;;;18.50;99.90;;;;;;4588861;19;19922;-25
2022/08/28 04:47:17;;;;;;;;;;;18.50;99.90;;;;;;4589648;19;19922;-23
2022/08/28 04:48:48;;;;;;;;;;;18.50;99.90;;;;;;4590034;19;20321;-25
2022/08/28 04:50:19;;;;;;;;;;;18.50;99.90;;;;;;4589982;19;19982;-28
2022/08/28 04:51:50;;;;;;;;;;;18.50;99.90;;;;;;4588803;19;19927;-29
2022/08/28 04:53:21;;;;;;;;;;;18.60;99.90;;;;;;4589109;19;20396;-28
2022/08/28 04:54:52;;;;;;;;;;;18.60;99.90;;;;;;4590234;19;19942;-25
2022/08/28 04:56:23;;;;;;;;;;;18.60;99.90;;;;;;4590147;19;19943;-25
2022/08/28 04:57:54;;;;;;;;;;;18.60;99.90;;;;;;4589295;19;19932;-25
2022/08/28 04:59:26;;;;;;;;;;;18.70;99.90;;;;;;4589837;19;19915;-30
2022/08/28 05:00:57;;;;;;;;;;;18.70;99.90;;;;;;4589883;19;19918;-25
2022/08/28 05:02:28;;;;;;;;;;;18.70;99.90;;;;;;4589712;19;19948;-25
2022/08/28 05:03:59;;;;;;;;;;;18.70;99.90;;;;;;4588470;19;20301;-27
2022/08/28 05:05:30;;;;;;;;;;;18.80;99.90;;;;;;4589289;19;19923;-26
2022/08/28 05:07:01;;;;;;;;;;;18.80;99.90;;;;;;4590061;19;19915;-27
2022/08/28 05:08:33;;;;;;;;;;;18.70;99.90;;;;;;4589384;19;19937;-28
2022/08/28 05:10:04;;;;;;;;;;;18.80;99.90;;;;;;4589351;19;19934;-25
2022/08/28 05:11:35;;;;;;;;;;;18.80;99.90;;;;;;4589348;19;19915;-25
2022/08/28 05:13:10;;;;;;;;;;;18.90;99.90;;;;;;4589541;19;19919;-27
2022/08/28 05:14:41;;;;;;;;;;;18.90;99.90;;;;;;4588325;19;19918;-26
2022/08/28 05:16:13;;;;;;;;;;;18.90;99.90;;;;;;4589007;19;19922;-23
2022/08/28 05:17:46;;;;;;;;;;;18.90;99.90;;;;;;4589224;19;19913;-28
2022/08/28 05:19:17;;;;;;;;;;;18.90;99.90;;;;;;4589697;19;19911;-23
2022/08/28 05:20:49;;;;;;;;;;;18.90;99.90;;;;;;4586859;19;20030;-23
2022/08/28 05:22:22;;;;;;;;;;;19.00;99.90;;;;;;4586985;19;20330;-24
2022/08/28 05:23:55;;;;;;;;;;;19.00;99.90;;;;;;4587460;19;20412;-24
2022/08/28 05:25:26;;;;;;;;;;;19.00;99.90;;;;;;4587318;19;19918;-24
2022/08/28 05:26:58;;;;;;;;;;;19.10;99.90;;;;;;4586981;19;20383;-30
2022/08/28 05:28:30;;;;;;;;;;;19.10;99.90;;;;;;4587333;19;19989;-24
2022/08/28 05:30:01;;;;;;;;;;;19.10;99.90;;;;;;4587677;19;19910;-25
2022/08/28 05:31:33;;;;;;;;;;;19.10;99.90;;;;;;4586601;19;19922;-24
2022/08/28 05:33:04;;;;;;;;;;;19.10;99.90;;;;;;4586613;19;19919;-23
2022/08/28 05:34:36;;;;;;;;;;;19.10;99.90;;;;;;4587031;19;19950;-24
2022/08/28 05:36:07;;;;;;;;;;;19.10;99.90;;;;;;4587158;19;20392;-24
2022/08/28 05:37:39;;;;;;;;;;;19.20;99.90;;;;;;4586157;19;19918;-24
2022/08/28 05:39:10;;;;;;;;;;;19.20;99.90;;;;;;4591717;19;20347;-22
2022/08/28 05:40:42;;;;;;;;;;;19.20;99.90;;;;;;4592726;19;20245;-22
2022/08/28 05:42:14;;;;;;;;;;;19.20;99.90;;;;;;4590843;19;19970;-26
2022/08/28 05:43:45;;;;;;;;;;;19.30;99.90;;;;;;4591709;19;20420;-24
2022/08/28 05:45:17;;;;;;;;;;;19.30;99.90;;;;;;4591512;19;19911;-23
2022/08/28 05:46:49;;;;;;;;;;;19.30;99.90;;;;;;4593091;19;19919;-26
2022/08/28 05:48:20;;;;;;;;;;;19.30;99.90;;;;;;4594073;19;19926;-23
2022/08/28 05:49:52;;;;;;;;;;;19.30;99.90;;;;;;4593627;19;19923;-24
2022/08/28 05:51:25;;;;;;;;;;;19.30;99.90;;;;;;4593874;19;19938;-22
2022/08/28 05:52:57;;;;;;;;;;;19.40;99.90;;;;;;4592239;19;19926;-26
2022/08/28 05:54:29;;;;;;;;;;;19.40;99.90;;;;;;4592504;19;20269;-24
2022/08/28 05:56:04;;;;;;;;;;;19.40;99.90;;;;;;4593688;19;20273;-27
2022/08/28 05:57:35;;;;;;;;;;;19.50;99.90;;;;;;4593553;19;20305;-24
2022/08/28 05:59:07;;;;;;;;;;;19.40;99.90;;;;;;4594423;19;19919;-27
2022/08/28 06:00:39;;;;;;;;;;;19.50;99.90;;;;;;4592762;19;19922;-24
2022/08/28 06:02:11;;;;;;;;;;;19.50;99.90;;;;;;4593261;19;19951;-26
2022/08/28 06:03:44;;;;;;;;;;;19.50;99.90;;;;;;4592911;19;19923;-24
2022/08/28 06:05:18;;;;;;;;;;;19.60;99.90;;;;;;4590662;19;19914;-24
2022/08/28 06:06:51;;;;;;;;;;;19.60;99.90;;;;;;4591833;19;19925;-29
2022/08/28 06:08:23;;;;;;;;;;;19.60;99.90;;;;;;4592143;19;19918;-23
2022/08/28 06:09:55;;;;;;;;;;;19.60;99.90;;;;;;4591509;19;19927;-24
2022/08/28 06:11:28;;;;;;;;;;;19.60;99.90;;;;;;4592317;19;20269;-26
2022/08/28 06:13:00;;;;;;;;;;;19.60;99.90;;;;;;4592764;19;19943;-24
2022/08/28 06:14:33;;;;;;;;;;;19.60;99.90;;;;;;4592695;19;20255;-23
2022/08/28 06:16:06;;;;;;;;;;;19.60;99.90;;;;;;4593065;19;19930;-24
2022/08/28 06:17:38;;;;;;;;;;;19.70;99.90;;;;;;4591776;19;19918;-29
2022/08/28 06:19:10;;;;;;;;;;;19.70;99.90;;;;;;4591596;19;19930;-24
2022/08/28 06:20:42;;;;;;;;;;;19.70;99.90;;;;;;4591627;19;20526;-24
2022/08/28 06:22:15;;;;;;;;;;;19.80;99.90;;;;;;4592864;19;19919;-24
2022/08/28 06:23:47;;;;;;;;;;;19.80;99.90;;;;;;4593444;19;20310;-24
2022/08/28 06:25:19;;;;;;;;;;;19.80;99.90;;;;;;4593021;19;19922;-23
2022/08/28 06:26:52;;;;;;;;;;;19.90;99.90;;;;;;4591859;19;20413;-24
2022/08/28 06:28:25;;;;;;;;;;;19.90;99.90;;;;;;4593432;19;19914;-24
2022/08/28 06:29:59;;;;;;;;;;;19.90;99.90;;;;;;4593422;19;20320;-28
2022/08/28 06:31:32;;;;;;;;;;;19.90;99.90;;;;;;4593091;19;20559;-23
2022/08/28 06:33:05;;;;;;;;;;;19.90;99.90;;;;;;4592920;19;19974;-25
2022/08/28 06:34:41;;;;;;;;;;;19.90;99.90;;;;;;4592005;19;19937;-27
2022/08/28 06:36:20;;;;;;;;;;;20.00;99.90;;;;;;4592877;19;19915;-23
2022/08/28 06:37:54;;;;;;;;;;;20.00;99.90;;;;;;4592045;19;19922;-24
2022/08/28 06:39:28;;;;;;;;;;;20.10;99.90;;;;;;4592151;19;19937;-22
2022/08/28 06:41:07;;;;;;;;;;;20.00;99.90;;;;;;4591656;19;19918;-25
2022/08/28 06:42:40;;;;;;;;;;;20.00;99.90;;;;;;4592977;19;19918;-23
2022/08/28 06:44:18;;;;;;;;;;;20.10;99.90;;;;;;4590054;19;19922;-25
2022/08/28 06:45:53;;;;;;;;;;;20.20;99.90;;;;;;4592068;19;19911;-24
2022/08/28 06:47:27;;;;;;;;;;;20.10;99.90;;;;;;4591311;19;19931;-23
2022/08/28 06:49:03;;;;;;;;;;;20.20;99.90;;;;;;4589298;19;19918;-23
2022/08/28 06:50:46;;;;;;;;;;;20.20;99.90;;;;;;4589430;19;19919;-24
2022/08/28 06:52:18;;;;;;;;;;;20.20;99.90;;;;;;4591777;19;20277;-24
2022/08/28 06:53:52;;;;;;;;;;;20.20;99.90;;;;;;4593154;19;19930;-25
2022/08/28 06:55:24;;;;;;;;;;;20.30;99.90;;;;;;4592198;19;19918;-24
2022/08/28 06:56:56;;;;;;;;;;;20.30;99.90;;;;;;4591152;19;19930;-23
2022/08/28 06:58:29;;;;;;;;;;;20.30;99.90;;;;;;4590377;19;19915;-22
2022/08/28 07:00:02;;;;;;;;;;;20.30;99.90;;;;;;4590798;19;19918;-26
2022/08/28 07:01:35;;;;;;;;;;;20.40;99.90;;;;;;4590880;19;20315;-27
2022/08/28 07:03:09;;;;;;;;;;;20.40;99.90;;;;;;4590014;19;19919;-22
2022/08/28 07:04:40;;;;;;;;;;;20.40;99.90;;;;;;4590417;19;19925;-28
2022/08/28 07:06:12;;;;;;;;;;;20.40;99.90;;;;;;4590563;19;20302;-24
2022/08/28 07:07:44;;;;;;;;;;;20.40;99.90;;;;;;4592094;19;19919;-27
2022/08/28 07:09:15;;;;;;;;;;;20.50;99.90;;;;;;4592088;19;19934;-24
2022/08/28 07:10:46;;;;;;;;;;;20.40;99.90;;;;;;4590422;19;19915;-24
2022/08/28 07:12:18;;;;;;;;;;;20.50;99.90;;;;;;4591181;19;19919;-24
2022/08/28 07:13:51;;;;;;;;;;;20.40;99.90;;;;;;4591108;19;19927;-26
2022/08/28 07:15:24;;;;;;;;;;;20.50;99.90;;;;;;4592088;19;19938;-27
2022/08/28 07:16:56;;;;;;;;;;;20.50;99.90;;;;;;4592934;19;19907;-25
2022/08/28 07:18:28;;;;;;;;;;;20.50;99.90;;;;;;4592055;19;20272;-24
2022/08/28 07:20:02;;;;;;;;;;;20.50;99.90;;;;;;4592760;19;19915;-22
2022/08/28 07:21:34;;;;;;;;;;;20.50;99.90;;;;;;4592552;19;20351;-22
2022/08/28 07:23:08;;;;;;;;;;;20.50;99.90;;;;;;4593538;19;19953;-24
2022/08/28 07:24:40;;;;;;;;;;;20.60;99.90;;;;;;4593699;19;19930;-25
2022/08/28 07:26:13;;;;;;;;;;;20.60;99.90;;;;;;4593620;19;19933;-24
2022/08/28 07:27:44;;;;;;;;;;;20.60;99.90;;;;;;4592816;19;19915;-24
2022/08/28 07:29:16;;;;;;;;;;;20.60;99.90;;;;;;4593714;19;19954;-27
2022/08/28 07:30:57;;;;;;;;;;;20.60;99.90;;;;;;4594392;19;19923;-23
2022/08/28 07:32:29;;;;;;;;;;;20.70;99.90;;;;;;4592519;19;19910;-24
2022/08/28 07:34:00;;;;;;;;;;;20.70;99.90;;;;;;4591551;19;19942;-22
2022/08/28 07:35:32;;;;;;;;;;;20.70;99.90;;;;;;4591719;19;21158;-25
2022/08/28 07:37:06;;;;;;;;;;;20.70;99.90;;;;;;4590837;19;19919;-27
2022/08/28 07:38:44;;;;;;;;;;;20.80;99.90;;;;;;4589511;19;20375;-24
2022/08/28 07:40:15;;;;;;;;;;;20.80;99.90;;;;;;4588755;19;19944;-27
2022/08/28 07:41:48;;;;;;;;;;;20.80;99.90;;;;;;4589169;19;19918;-24
2022/08/28 07:45:09;;;;;;;;;;;20.80;99.90;;;;;;4592164;19;20514;-24
2022/08/28 07:46:41;;;;;;;;;;;20.90;99.90;;;;;;4588915;19;19914;-24
2022/08/28 07:48:14;;;;;;;;;;;20.90;99.90;;;;;;4590849;19;19915;-24
2022/08/28 07:49:47;;;;;;;;;;;20.90;99.90;;;;;;4591850;19;20018;-26
2022/08/28 07:51:19;;;;;;;;;;;20.90;99.90;;;;;;4590247;19;19926;-23
2022/08/28 07:52:51;;;;;;;;;;;21.00;99.90;;;;;;4588039;19;19926;-25
2022/08/28 07:54:22;;;;;;;;;;;21.00;99.90;;;;;;4588106;19;19915;-26
2022/08/28 07:55:54;;;;;;;;;;;21.00;99.90;;;;;;4588294;19;19922;-27
2022/08/28 07:57:28;;;;;;;;;;;21.10;99.90;;;;;;4588781;19;19926;-25
2022/08/28 07:59:00;;;;;;;;;;;21.10;99.90;;;;;;4587944;19;19922;-24
2022/08/28 08:00:31;;;;;;;;;;;21.10;99.90;;;;;;4588937;19;20555;-24
2022/08/28 08:02:03;;;;;;;;;;;21.10;99.90;;;;;;4589424;19;19931;-23
2022/08/28 08:03:35;;;;;;;;;;;21.10;99.90;;;;;;4588779;19;19923;-27
2022/08/28 08:05:09;;;;;;;;;;;21.10;99.90;;;;;;4588703;19;20370;-25
2022/08/28 08:06:41;;;;;;;;;;;21.20;99.90;;;;;;4588810;19;19974;-24
2022/08/28 08:08:12;;;;;;;;;;;21.20;99.90;;;;;;4589082;19;19926;-24
2022/08/28 08:09:45;;;;;;;;;;;21.20;99.90;;;;;;4588479;19;20342;-24
2022/08/28 08:11:17;;;;;;;;;;;21.20;99.90;;;;;;4588686;19;19915;-24
2022/08/28 08:12:49;;;;;;;;;;;21.20;99.90;;;;;;4588529;19;19925;-24
2022/08/28 08:14:20;;;;;;;;;;;21.30;99.90;;;;;;4589535;19;19923;-23
2022/08/28 08:15:52;;;;;;;;;;;21.30;99.90;;;;;;4588756;19;19942;-24
2022/08/28 08:17:24;;;;;;;;;;;21.30;99.90;;;;;;4588452;19;20390;-24
2022/08/28 08:18:56;;;;;;;;;;;21.30;99.90;;;;;;4587878;19;19922;-22
2022/08/28 08:20:28;;;;;;;;;;;21.40;99.90;;;;;;4591466;19;20264;-23
2022/08/28 08:22:02;;;;;;;;;;;21.30;99.90;;;;;;4590784;19;19975;-24
2022/08/28 08:23:34;;;;;;;;;;;21.40;99.90;;;;;;4590307;19;19941;-22
2022/08/28 08:25:06;;;;;;;;;;;21.50;99.90;;;;;;4590500;19;19926;-23
2022/08/28 08:26:44;;;;;;;;;;;21.50;99.90;;;;;;4589646;19;19919;-28
2022/08/28 08:28:16;;;;;;;;;;;21.50;99.90;;;;;;4589642;19;19974;-25
2022/08/28 08:29:47;;;;;;;;;;;21.50;99.90;;;;;;4588085;19;19915;-24
2022/08/28 08:31:20;;;;;;;;;;;21.60;99.90;;;;;;4590021;19;19926;-25
2022/08/28 08:32:51;;;;;;;;;;;21.60;99.90;;;;;;4588780;19;20330;-25
2022/08/28 08:34:22;;;;;;;;;;;21.60;99.90;;;;;;4589494;19;19929;-26
2022/08/28 08:35:54;;;;;;;;;;;21.60;99.90;;;;;;4590921;19;19923;-25
2022/08/28 08:37:26;;;;;;;;;;;21.70;99.90;;;;;;4590838;19;20447;-24
2022/08/28 08:38:58;;;;;;;;;;;21.70;99.90;;;;;;4588503;19;19914;-24
2022/08/28 08:40:30;;;;;;;;;;;21.70;99.90;;;;;;4589095;19;19914;-24
2022/08/28 08:42:02;;;;;;;;;;;21.70;99.90;;;;;;4588171;19;19922;-26
2022/08/28 08:43:41;;;;;;;;;;;21.70;99.90;;;;;;4586398;19;20363;-25
2022/08/28 08:45:13;;;;;;;;;;;21.70;99.90;;;;;;4588245;19;19931;-25
2022/08/28 08:46:48;;;;;;;;;;;21.80;99.90;;;;;;4587772;19;19929;-25
2022/08/28 08:48:28;;;;;;;;;;;21.90;99.90;;;;;;4587484;19;19919;-25
2022/08/28 08:50:00;;;;;;;;;;;21.90;99.90;;;;;;4588138;19;19926;-24
2022/08/28 08:51:38;;;;;;;;;;;21.90;99.90;;;;;;4588399;19;19919;-25
2022/08/28 08:53:33;;;;;;;;;;;21.90;99.90;;;;;;4588748;19;20372;-27
2022/08/28 08:55:11;;;;;;;;;;;21.90;99.90;;;;;;4588577;19;19910;-23
2022/08/28 08:56:43;;;;;;;;;;;21.90;99.90;;;;;;4588020;19;19915;-27
2022/08/28 08:58:27;;;;;;;;;;;21.80;99.90;;;;;;4586452;19;19926;-25
2022/08/28 08:59:59;;;;;;;;;;;21.90;99.90;;;;;;4587362;19;19927;-30
2022/08/28 09:01:54;;;;;;;;;;;21.90;99.90;;;;;;4587826;19;19915;-27